sensor_id;sensor_type;location;lat;lon;timestamp;P1;durP1;ratioP1;P2;durP2;ratioP2
2618;SDS011;1319;52.346;13.096;2023-04-24T00:02:05;13.47;;;9.33;;
2618;SDS011;1319;52.346;13.096;2023-04-24T00:04:31;11.23;;;9.40;;
2618;SDS011;1319;52.346;13.096;2023-04-24T00:06:56;13.90;;;10.03;;
2618;SDS011;1319;52.346;13.096;2023-04-24T00:09:24;12.40;;;9.30;;
2618;SDS011;1319;52.346;13.096;2023-04-24T00:11:50;12.47;;;9.80;;
2618;SDS011;1319;52.346;13.096;2023-04-24T00:14:15;12.37;;;9.57;;
2618;SDS011;1319;52.346;13.096;2023-04-24T00:16:40;14.63;;;9.17;;
2618;SDS011;1319;52.346;13.096;2023-04-24T00:19:06;11.03;;;9.07;;
2618;SDS011;1319;52.346;13.096;2023-04-24T00:21:31;15.67;;;10.40;;
2618;SDS011;1319;52.346;13.096;2023-04-24T00:23:57;12.73;;;9.33;;
2618;SDS011;1319;52.346;13.096;2023-04-24T00:26:23;9.33;;;7.80;;
2618;SDS011;1319;52.346;13.096;2023-04-24T00:28:48;8.53;;;7.20;;
2618;SDS011;1319;52.346;13.096;2023-04-24T00:31:13;19.90;;;8.50;;
2618;SDS011;1319;52.346;13.096;2023-04-24T00:33:38;10.50;;;8.50;;
2618;SDS011;1319;52.346;13.096;2023-04-24T00:36:04;12.57;;;9.40;;
2618;SDS011;1319;52.346;13.096;2023-04-24T00:38:29;12.57;;;9.27;;
2618;SDS011;1319;52.346;13.096;2023-04-24T00:40:54;10.57;;;9.00;;
2618;SDS011;1319;52.346;13.096;2023-04-24T00:43:19;12.13;;;9.23;;
2618;SDS011;1319;52.346;13.096;2023-04-24T00:45:44;14.53;;;10.07;;
2618;SDS011;1319;52.346;13.096;2023-04-24T00:48:10;14.70;;;9.30;;
2618;SDS011;1319;52.346;13.096;2023-04-24T00:50:36;11.00;;;9.57;;
2618;SDS011;1319;52.346;13.096;2023-04-24T00:53:02;11.63;;;9.23;;
2618;SDS011;1319;52.346;13.096;2023-04-24T00:55:28;14.17;;;9.20;;
2618;SDS011;1319;52.346;13.096;2023-04-24T00:57:53;11.87;;;9.17;;
2618;SDS011;1319;52.346;13.096;2023-04-24T01:00:19;12.30;;;9.77;;
2618;SDS011;1319;52.346;13.096;2023-04-24T01:02:44;10.70;;;8.90;;
2618;SDS011;1319;52.346;13.096;2023-04-24T01:05:14;11.47;;;9.60;;
2618;SDS011;1319;52.346;13.096;2023-04-24T01:07:40;13.23;;;9.77;;
2618;SDS011;1319;52.346;13.096;2023-04-24T01:10:09;10.37;;;9.27;;
2618;SDS011;1319;52.346;13.096;2023-04-24T01:12:34;12.93;;;9.67;;
2618;SDS011;1319;52.346;13.096;2023-04-24T01:14:59;15.70;;;9.77;;
2618;SDS011;1319;52.346;13.096;2023-04-24T01:17:25;12.07;;;9.77;;
2618;SDS011;1319;52.346;13.096;2023-04-24T01:19:50;13.60;;;10.23;;
2618;SDS011;1319;52.346;13.096;2023-04-24T01:22:18;13.00;;;9.17;;
2618;SDS011;1319;52.346;13.096;2023-04-24T01:24:44;9.47;;;8.30;;
2618;SDS011;1319;52.346;13.096;2023-04-24T01:27:10;13.27;;;9.17;;
2618;SDS011;1319;52.346;13.096;2023-04-24T01:29:35;13.73;;;9.07;;
2618;SDS011;1319;52.346;13.096;2023-04-24T01:32:01;9.27;;;8.03;;
2618;SDS011;1319;52.346;13.096;2023-04-24T01:34:26;9.37;;;8.07;;
2618;SDS011;1319;52.346;13.096;2023-04-24T01:36:52;9.53;;;8.00;;
2618;SDS011;1319;52.346;13.096;2023-04-24T01:39:17;9.23;;;7.57;;
2618;SDS011;1319;52.346;13.096;2023-04-24T01:41:43;10.63;;;7.70;;
2618;SDS011;1319;52.346;13.096;2023-04-24T01:44:08;9.57;;;8.53;;
2618;SDS011;1319;52.346;13.096;2023-04-24T01:46:33;11.17;;;8.77;;
2618;SDS011;1319;52.346;13.096;2023-04-24T01:49:00;11.77;;;9.40;;
2618;SDS011;1319;52.346;13.096;2023-04-24T01:51:26;11.83;;;9.03;;
2618;SDS011;1319;52.346;13.096;2023-04-24T01:53:51;14.87;;;9.63;;
2618;SDS011;1319;52.346;13.096;2023-04-24T01:56:17;12.90;;;8.80;;
2618;SDS011;1319;52.346;13.096;2023-04-24T01:58:42;14.67;;;8.57;;
2618;SDS011;1319;52.346;13.096;2023-04-24T02:01:08;11.40;;;8.63;;
2618;SDS011;1319;52.346;13.096;2023-04-24T02:03:33;11.77;;;9.73;;
2618;SDS011;1319;52.346;13.096;2023-04-24T02:05:58;10.77;;;9.13;;
2618;SDS011;1319;52.346;13.096;2023-04-24T02:08:23;13.53;;;10.03;;
2618;SDS011;1319;52.346;13.096;2023-04-24T02:10:49;13.43;;;10.40;;
2618;SDS011;1319;52.346;13.096;2023-04-24T02:13:14;16.30;;;10.63;;
2618;SDS011;1319;52.346;13.096;2023-04-24T02:15:39;12.87;;;10.17;;
2618;SDS011;1319;52.346;13.096;2023-04-24T02:18:04;14.10;;;10.97;;
2618;SDS011;1319;52.346;13.096;2023-04-24T02:20:31;12.30;;;9.83;;
2618;SDS011;1319;52.346;13.096;2023-04-24T02:22:58;12.87;;;10.50;;
2618;SDS011;1319;52.346;13.096;2023-04-24T02:25:24;13.10;;;10.57;;
2618;SDS011;1319;52.346;13.096;2023-04-24T02:27:49;14.60;;;10.43;;
2618;SDS011;1319;52.346;13.096;2023-04-24T02:30:14;15.10;;;10.47;;
2618;SDS011;1319;52.346;13.096;2023-04-24T02:32:40;12.33;;;10.20;;
2618;SDS011;1319;52.346;13.096;2023-04-24T02:35:05;12.73;;;10.20;;
2618;SDS011;1319;52.346;13.096;2023-04-24T02:37:30;12.47;;;10.60;;
2618;SDS011;1319;52.346;13.096;2023-04-24T02:39:56;13.70;;;10.27;;
2618;SDS011;1319;52.346;13.096;2023-04-24T02:42:21;13.20;;;10.17;;
2618;SDS011;1319;52.346;13.096;2023-04-24T02:44:46;16.20;;;10.20;;
2618;SDS011;1319;52.346;13.096;2023-04-24T02:47:11;12.57;;;10.50;;
2618;SDS011;1319;52.346;13.096;2023-04-24T02:49:36;16.63;;;10.43;;
2618;SDS011;1319;52.346;13.096;2023-04-24T02:52:02;11.37;;;9.40;;
2618;SDS011;1319;52.346;13.096;2023-04-24T02:54:27;11.90;;;8.63;;
2618;SDS011;1319;52.346;13.096;2023-04-24T02:56:52;14.23;;;9.87;;
2618;SDS011;1319;52.346;13.096;2023-04-24T02:59:18;16.03;;;10.30;;
2618;SDS011;1319;52.346;13.096;2023-04-24T03:01:43;13.73;;;10.10;;
2618;SDS011;1319;52.346;13.096;2023-04-24T03:04:08;13.97;;;9.37;;
2618;SDS011;1319;52.346;13.096;2023-04-24T03:06:33;12.97;;;8.87;;
2618;SDS011;1319;52.346;13.096;2023-04-24T03:09:00;14.63;;;9.83;;
2618;SDS011;1319;52.346;13.096;2023-04-24T03:11:25;12.70;;;9.95;;
2618;SDS011;1319;52.346;13.096;2023-04-24T03:13:51;14.93;;;10.20;;
2618;SDS011;1319;52.346;13.096;2023-04-24T03:16:16;12.23;;;9.40;;
2618;SDS011;1319;52.346;13.096;2023-04-24T03:18:41;12.47;;;9.57;;
2618;SDS011;1319;52.346;13.096;2023-04-24T03:21:06;14.10;;;10.70;;
2618;SDS011;1319;52.346;13.096;2023-04-24T03:23:32;12.23;;;10.10;;
2618;SDS011;1319;52.346;13.096;2023-04-24T03:25:57;12.60;;;10.17;;
2618;SDS011;1319;52.346;13.096;2023-04-24T03:28:22;11.53;;;10.07;;
2618;SDS011;1319;52.346;13.096;2023-04-24T03:30:47;14.73;;;10.67;;
2618;SDS011;1319;52.346;13.096;2023-04-24T03:33:12;12.60;;;10.07;;
2618;SDS011;1319;52.346;13.096;2023-04-24T03:35:38;14.87;;;9.57;;
2618;SDS011;1319;52.346;13.096;2023-04-24T03:38:03;14.37;;;10.10;;
2618;SDS011;1319;52.346;13.096;2023-04-24T03:40:31;12.47;;;9.43;;
2618;SDS011;1319;52.346;13.096;2023-04-24T03:42:58;14.00;;;9.83;;
2618;SDS011;1319;52.346;13.096;2023-04-24T03:45:23;12.73;;;10.50;;
2618;SDS011;1319;52.346;13.096;2023-04-24T03:47:49;11.37;;;9.33;;
2618;SDS011;1319;52.346;13.096;2023-04-24T03:50:14;16.53;;;9.33;;
2618;SDS011;1319;52.346;13.096;2023-04-24T03:52:39;15.97;;;10.07;;
2618;SDS011;1319;52.346;13.096;2023-04-24T03:55:05;12.73;;;9.43;;
2618;SDS011;1319;52.346;13.096;2023-04-24T03:57:31;12.63;;;9.63;;
2618;SDS011;1319;52.346;13.096;2023-04-24T03:59:56;10.97;;;9.43;;
2618;SDS011;1319;52.346;13.096;2023-04-24T04:02:21;11.63;;;9.40;;
2618;SDS011;1319;52.346;13.096;2023-04-24T04:04:47;15.83;;;10.10;;
2618;SDS011;1319;52.346;13.096;2023-04-24T04:07:12;13.30;;;10.50;;
2618;SDS011;1319;52.346;13.096;2023-04-24T04:09:37;12.90;;;10.10;;
2618;SDS011;1319;52.346;13.096;2023-04-24T04:12:03;12.63;;;10.30;;
2618;SDS011;1319;52.346;13.096;2023-04-24T04:14:28;12.73;;;9.87;;
2618;SDS011;1319;52.346;13.096;2023-04-24T04:16:53;11.00;;;9.33;;
2618;SDS011;1319;52.346;13.096;2023-04-24T04:19:18;11.67;;;9.47;;
2618;SDS011;1319;52.346;13.096;2023-04-24T04:21:43;12.83;;;10.13;;
2618;SDS011;1319;52.346;13.096;2023-04-24T04:24:10;13.10;;;10.50;;
2618;SDS011;1319;52.346;13.096;2023-04-24T04:26:36;13.27;;;11.03;;
2618;SDS011;1319;52.346;13.096;2023-04-24T04:29:02;16.90;;;11.23;;
2618;SDS011;1319;52.346;13.096;2023-04-24T04:31:28;14.10;;;10.97;;
2618;SDS011;1319;52.346;13.096;2023-04-24T04:33:53;14.00;;;11.23;;
2618;SDS011;1319;52.346;13.096;2023-04-24T04:36:18;15.00;;;10.30;;
2618;SDS011;1319;52.346;13.096;2023-04-24T04:38:44;16.77;;;10.97;;
2618;SDS011;1319;52.346;13.096;2023-04-24T04:41:09;13.43;;;11.10;;
2618;SDS011;1319;52.346;13.096;2023-04-24T04:43:35;15.97;;;11.13;;
2618;SDS011;1319;52.346;13.096;2023-04-24T04:46:01;13.70;;;10.60;;
2618;SDS011;1319;52.346;13.096;2023-04-24T04:48:28;13.23;;;10.63;;
2618;SDS011;1319;52.346;13.096;2023-04-24T04:50:53;13.73;;;10.70;;
2618;SDS011;1319;52.346;13.096;2023-04-24T04:53:19;10.57;;;8.10;;
2618;SDS011;1319;52.346;13.096;2023-04-24T04:55:44;9.60;;;7.90;;
2618;SDS011;1319;52.346;13.096;2023-04-24T04:58:09;10.80;;;7.93;;
2618;SDS011;1319;52.346;13.096;2023-04-24T05:00:34;19.90;;;11.70;;
2618;SDS011;1319;52.346;13.096;2023-04-24T05:03:02;25.83;;;15.60;;
2618;SDS011;1319;52.346;13.096;2023-04-24T05:05:27;28.53;;;15.60;;
2618;SDS011;1319;52.346;13.096;2023-04-24T05:07:53;29.90;;;18.40;;
2618;SDS011;1319;52.346;13.096;2023-04-24T05:10:18;25.90;;;16.00;;
2618;SDS011;1319;52.346;13.096;2023-04-24T05:12:43;23.47;;;14.67;;
2618;SDS011;1319;52.346;13.096;2023-04-24T05:15:08;11.40;;;8.17;;
2618;SDS011;1319;52.346;13.096;2023-04-24T05:17:34;7.87;;;6.30;;
2618;SDS011;1319;52.346;13.096;2023-04-24T05:19:59;6.23;;;5.40;;
2618;SDS011;1319;52.346;13.096;2023-04-24T05:22:25;6.30;;;4.83;;
2618;SDS011;1319;52.346;13.096;2023-04-24T05:24:50;5.20;;;4.30;;
2618;SDS011;1319;52.346;13.096;2023-04-24T05:27:16;6.60;;;4.10;;
2618;SDS011;1319;52.346;13.096;2023-04-24T05:29:41;4.63;;;3.70;;
2618;SDS011;1319;52.346;13.096;2023-04-24T05:32:06;4.13;;;3.83;;
2618;SDS011;1319;52.346;13.096;2023-04-24T05:34:32;7.27;;;3.50;;
2618;SDS011;1319;52.346;13.096;2023-04-24T05:36:57;3.43;;;3.23;;
2618;SDS011;1319;52.346;13.096;2023-04-24T05:39:22;3.60;;;3.30;;
2618;SDS011;1319;52.346;13.096;2023-04-24T05:41:49;3.47;;;3.20;;
2618;SDS011;1319;52.346;13.096;2023-04-24T05:44:15;5.67;;;3.30;;
2618;SDS011;1319;52.346;13.096;2023-04-24T05:46:40;2.90;;;2.70;;
2618;SDS011;1319;52.346;13.096;2023-04-24T05:49:05;3.00;;;2.70;;
2618;SDS011;1319;52.346;13.096;2023-04-24T05:51:31;5.53;;;2.63;;
2618;SDS011;1319;52.346;13.096;2023-04-24T05:53:56;2.80;;;2.60;;
2618;SDS011;1319;52.346;13.096;2023-04-24T05:56:21;2.43;;;2.30;;
2618;SDS011;1319;52.346;13.096;2023-04-24T05:58:47;2.73;;;2.50;;
2618;SDS011;1319;52.346;13.096;2023-04-24T06:01:12;3.00;;;2.60;;
2618;SDS011;1319;52.346;13.096;2023-04-24T06:03:40;5.40;;;2.20;;
2618;SDS011;1319;52.346;13.096;2023-04-24T06:06:05;2.70;;;2.50;;
2618;SDS011;1319;52.346;13.096;2023-04-24T06:08:30;2.33;;;2.13;;
2618;SDS011;1319;52.346;13.096;2023-04-24T06:10:56;2.00;;;1.80;;
2618;SDS011;1319;52.346;13.096;2023-04-24T06:13:21;2.13;;;2.00;;
2618;SDS011;1319;52.346;13.096;2023-04-24T06:15:46;2.93;;;2.00;;
2618;SDS011;1319;52.346;13.096;2023-04-24T06:18:11;2.30;;;1.97;;
2618;SDS011;1319;52.346;13.096;2023-04-24T06:20:37;2.23;;;2.03;;
2618;SDS011;1319;52.346;13.096;2023-04-24T06:23:02;2.47;;;1.63;;
2618;SDS011;1319;52.346;13.096;2023-04-24T06:25:28;2.80;;;1.50;;
2618;SDS011;1319;52.346;13.096;2023-04-24T06:27:53;1.63;;;1.60;;
2618;SDS011;1319;52.346;13.096;2023-04-24T06:30:19;3.67;;;1.53;;
2618;SDS011;1319;52.346;13.096;2023-04-24T06:32:44;1.83;;;1.70;;
2618;SDS011;1319;52.346;13.096;2023-04-24T06:35:10;1.30;;;1.20;;
2618;SDS011;1319;52.346;13.096;2023-04-24T06:37:36;1.40;;;1.40;;
2618;SDS011;1319;52.346;13.096;2023-04-24T06:40:01;1.87;;;1.30;;
2618;SDS011;1319;52.346;13.096;2023-04-24T06:42:26;1.97;;;1.50;;
2618;SDS011;1319;52.346;13.096;2023-04-24T06:44:52;2.43;;;1.40;;
2618;SDS011;1319;52.346;13.096;2023-04-24T06:47:17;1.67;;;1.40;;
2618;SDS011;1319;52.346;13.096;2023-04-24T06:49:43;2.57;;;1.40;;
2618;SDS011;1319;52.346;13.096;2023-04-24T06:52:08;1.30;;;1.20;;
2618;SDS011;1319;52.346;13.096;2023-04-24T06:54:34;1.37;;;1.17;;
2618;SDS011;1319;52.346;13.096;2023-04-24T06:56:59;1.37;;;1.30;;
2618;SDS011;1319;52.346;13.096;2023-04-24T06:59:28;1.40;;;1.30;;
2618;SDS011;1319;52.346;13.096;2023-04-24T07:01:53;1.27;;;1.23;;
2618;SDS011;1319;52.346;13.096;2023-04-24T07:04:18;1.90;;;1.50;;
2618;SDS011;1319;52.346;13.096;2023-04-24T07:06:44;1.77;;;1.40;;
2618;SDS011;1319;52.346;13.096;2023-04-24T07:09:10;3.40;;;1.50;;
2618;SDS011;1319;52.346;13.096;2023-04-24T07:11:36;1.20;;;1.10;;
2618;SDS011;1319;52.346;13.096;2023-04-24T07:14:03;3.83;;;1.40;;
2618;SDS011;1319;52.346;13.096;2023-04-24T07:16:28;1.57;;;1.47;;
2618;SDS011;1319;52.346;13.096;2023-04-24T07:18:53;1.50;;;1.40;;
2618;SDS011;1319;52.346;13.096;2023-04-24T07:21:18;1.30;;;1.30;;
2618;SDS011;1319;52.346;13.096;2023-04-24T07:23:43;1.30;;;1.30;;
2618;SDS011;1319;52.346;13.096;2023-04-24T07:26:09;1.37;;;1.30;;
2618;SDS011;1319;52.346;13.096;2023-04-24T07:28:34;2.10;;;1.30;;
2618;SDS011;1319;52.346;13.096;2023-04-24T07:30:59;1.30;;;1.30;;
2618;SDS011;1319;52.346;13.096;2023-04-24T07:33:25;1.13;;;1.03;;
2618;SDS011;1319;52.346;13.096;2023-04-24T07:35:50;1.80;;;1.30;;
2618;SDS011;1319;52.346;13.096;2023-04-24T07:38:16;3.37;;;1.20;;
2618;SDS011;1319;52.346;13.096;2023-04-24T07:40:41;1.00;;;1.00;;
2618;SDS011;1319;52.346;13.096;2023-04-24T07:43:07;2.10;;;1.07;;
2618;SDS011;1319;52.346;13.096;2023-04-24T07:45:32;1.53;;;0.93;;
2618;SDS011;1319;52.346;13.096;2023-04-24T07:48:01;1.93;;;1.03;;
2618;SDS011;1319;52.346;13.096;2023-04-24T07:50:26;1.00;;;1.00;;
2618;SDS011;1319;52.346;13.096;2023-04-24T07:52:51;1.17;;;1.07;;
2618;SDS011;1319;52.346;13.096;2023-04-24T07:55:16;1.07;;;1.07;;
2618;SDS011;1319;52.346;13.096;2023-04-24T07:57:41;1.17;;;1.07;;
2618;SDS011;1319;52.346;13.096;2023-04-24T08:00:08;2.63;;;1.00;;
2618;SDS011;1319;52.346;13.096;2023-04-24T08:02:33;1.17;;;1.10;;
2618;SDS011;1319;52.346;13.096;2023-04-24T08:04:58;1.10;;;1.10;;
2618;SDS011;1319;52.346;13.096;2023-04-24T08:07:23;1.20;;;1.20;;
2618;SDS011;1319;52.346;13.096;2023-04-24T08:09:49;1.40;;;1.30;;
2618;SDS011;1319;52.346;13.096;2023-04-24T08:12:14;2.13;;;1.07;;
2618;SDS011;1319;52.346;13.096;2023-04-24T08:14:39;1.20;;;1.20;;
2618;SDS011;1319;52.346;13.096;2023-04-24T08:17:04;2.30;;;1.40;;
2618;SDS011;1319;52.346;13.096;2023-04-24T08:19:30;3.37;;;1.30;;
2618;SDS011;1319;52.346;13.096;2023-04-24T08:21:55;1.10;;;1.10;;
2618;SDS011;1319;52.346;13.096;2023-04-24T08:24:20;1.07;;;1.07;;
2618;SDS011;1319;52.346;13.096;2023-04-24T08:26:46;1.10;;;1.00;;
2618;SDS011;1319;52.346;13.096;2023-04-24T08:29:11;4.43;;;0.97;;
2618;SDS011;1319;52.346;13.096;2023-04-24T08:31:36;3.67;;;1.10;;
2618;SDS011;1319;52.346;13.096;2023-04-24T08:34:02;0.93;;;0.93;;
2618;SDS011;1319;52.346;13.096;2023-04-24T08:36:27;1.27;;;0.90;;
2618;SDS011;1319;52.346;13.096;2023-04-24T08:38:52;1.47;;;1.00;;
2618;SDS011;1319;52.346;13.096;2023-04-24T08:41:18;2.13;;;1.20;;
2618;SDS011;1319;52.346;13.096;2023-04-24T08:43:43;2.43;;;1.10;;
2618;SDS011;1319;52.346;13.096;2023-04-24T08:46:09;1.00;;;1.00;;
2618;SDS011;1319;52.346;13.096;2023-04-24T08:48:35;1.37;;;1.20;;
2618;SDS011;1319;52.346;13.096;2023-04-24T08:51:00;1.83;;;1.00;;
2618;SDS011;1319;52.346;13.096;2023-04-24T08:53:27;1.13;;;1.10;;
2618;SDS011;1319;52.346;13.096;2023-04-24T08:55:53;2.30;;;1.00;;
2618;SDS011;1319;52.346;13.096;2023-04-24T08:58:18;3.90;;;1.20;;
2618;SDS011;1319;52.346;13.096;2023-04-24T09:00:44;2.03;;;1.10;;
2618;SDS011;1319;52.346;13.096;2023-04-24T09:03:13;1.40;;;1.00;;
2618;SDS011;1319;52.346;13.096;2023-04-24T09:05:39;0.93;;;0.93;;
2618;SDS011;1319;52.346;13.096;2023-04-24T09:08:05;2.00;;;1.10;;
2618;SDS011;1319;52.346;13.096;2023-04-24T09:10:31;1.00;;;1.00;;
2618;SDS011;1319;52.346;13.096;2023-04-24T09:12:58;3.27;;;1.30;;
2618;SDS011;1319;52.346;13.096;2023-04-24T09:15:24;3.90;;;1.20;;
2618;SDS011;1319;52.346;13.096;2023-04-24T09:17:49;1.00;;;1.00;;
2618;SDS011;1319;52.346;13.096;2023-04-24T09:20:14;0.97;;;0.93;;
2618;SDS011;1319;52.346;13.096;2023-04-24T09:22:40;1.57;;;0.90;;
2618;SDS011;1319;52.346;13.096;2023-04-24T09:25:06;3.40;;;0.90;;
2618;SDS011;1319;52.346;13.096;2023-04-24T09:27:32;1.47;;;0.90;;
2618;SDS011;1319;52.346;13.096;2023-04-24T09:29:58;0.90;;;0.90;;
2618;SDS011;1319;52.346;13.096;2023-04-24T09:32:23;1.43;;;1.03;;
2618;SDS011;1319;52.346;13.096;2023-04-24T09:35:12;1.17;;;0.90;;
2618;SDS011;1319;52.346;13.096;2023-04-24T09:42:37;1.10;;;1.10;;
2618;SDS011;1319;52.346;13.096;2023-04-24T09:45:03;1.17;;;1.07;;
2618;SDS011;1319;52.346;13.096;2023-04-24T09:47:35;1.67;;;1.00;;
2618;SDS011;1319;52.346;13.096;2023-04-24T09:50:01;1.03;;;1.00;;
2618;SDS011;1319;52.346;13.096;2023-04-24T09:52:33;1.20;;;1.10;;
2618;SDS011;1319;52.346;13.096;2023-04-24T09:54:58;2.47;;;1.20;;
2618;SDS011;1319;52.346;13.096;2023-04-24T09:57:24;2.30;;;0.97;;
2618;SDS011;1319;52.346;13.096;2023-04-24T09:59:49;0.90;;;0.90;;
2618;SDS011;1319;52.346;13.096;2023-04-24T10:02:18;2.67;;;1.10;;
2618;SDS011;1319;52.346;13.096;2023-04-24T10:04:53;1.17;;;1.17;;
2618;SDS011;1319;52.346;13.096;2023-04-24T10:07:19;2.83;;;1.10;;
2618;SDS011;1319;52.346;13.096;2023-04-24T10:09:44;1.53;;;1.10;;
2618;SDS011;1319;52.346;13.096;2023-04-24T10:12:09;1.33;;;1.00;;
2618;SDS011;1319;52.346;13.096;2023-04-24T10:14:35;1.20;;;1.10;;
2618;SDS011;1319;52.346;13.096;2023-04-24T10:17:01;1.10;;;1.10;;
2618;SDS011;1319;52.346;13.096;2023-04-24T10:19:26;0.90;;;0.90;;
2618;SDS011;1319;52.346;13.096;2023-04-24T10:21:52;1.27;;;0.80;;
2618;SDS011;1319;52.346;13.096;2023-04-24T10:24:17;0.93;;;0.93;;
2618;SDS011;1319;52.346;13.096;2023-04-24T10:26:44;1.03;;;0.90;;
2618;SDS011;1319;52.346;13.096;2023-04-24T10:29:10;2.53;;;1.27;;
2618;SDS011;1319;52.346;13.096;2023-04-24T10:31:37;1.60;;;1.10;;
2618;SDS011;1319;52.346;13.096;2023-04-24T10:34:03;1.17;;;1.10;;
2618;SDS011;1319;52.346;13.096;2023-04-24T10:36:29;0.90;;;0.90;;
2618;SDS011;1319;52.346;13.096;2023-04-24T10:38:57;0.90;;;0.90;;
2618;SDS011;1319;52.346;13.096;2023-04-24T10:41:24;0.90;;;0.90;;
2618;SDS011;1319;52.346;13.096;2023-04-24T10:44:06;2.40;;;1.00;;
2618;SDS011;1319;52.346;13.096;2023-04-24T10:46:32;1.27;;;1.20;;
2618;SDS011;1319;52.346;13.096;2023-04-24T10:48:58;1.10;;;0.90;;
2618;SDS011;1319;52.346;13.096;2023-04-24T10:51:24;1.70;;;0.97;;
2618;SDS011;1319;52.346;13.096;2023-04-24T10:53:50;1.00;;;1.00;;
2618;SDS011;1319;52.346;13.096;2023-04-24T10:56:15;0.97;;;0.90;;
2618;SDS011;1319;52.346;13.096;2023-04-24T10:58:44;3.23;;;1.00;;
2618;SDS011;1319;52.346;13.096;2023-04-24T11:01:29;0.90;;;0.90;;
2618;SDS011;1319;52.346;13.096;2023-04-24T11:04:01;2.47;;;1.17;;
2618;SDS011;1319;52.346;13.096;2023-04-24T11:06:30;2.23;;;1.10;;
2618;SDS011;1319;52.346;13.096;2023-04-24T11:11:28;1.07;;;1.00;;
2618;SDS011;1319;52.346;13.096;2023-04-24T11:16:26;1.43;;;1.10;;
2618;SDS011;1319;52.346;13.096;2023-04-24T11:22:01;1.37;;;1.10;;
2618;SDS011;1319;52.346;13.096;2023-04-24T11:26:56;0.97;;;0.90;;
2618;SDS011;1319;52.346;13.096;2023-04-24T11:29:22;1.17;;;0.90;;
2618;SDS011;1319;52.346;13.096;2023-04-24T11:31:48;1.33;;;0.77;;
2618;SDS011;1319;52.346;13.096;2023-04-24T11:34:16;0.80;;;0.80;;
2618;SDS011;1319;52.346;13.096;2023-04-24T11:36:47;2.58;;;1.00;;
2618;SDS011;1319;52.346;13.096;2023-04-24T11:39:13;0.90;;;0.90;;
2618;SDS011;1319;52.346;13.096;2023-04-24T11:41:38;0.82;;;0.82;;
2618;SDS011;1319;52.346;13.096;2023-04-24T11:44:05;1.27;;;0.85;;
2618;SDS011;1319;52.346;13.096;2023-04-24T11:46:31;0.93;;;0.93;;
2618;SDS011;1319;52.346;13.096;2023-04-24T11:48:56;4.18;;;1.00;;
2618;SDS011;1319;52.346;13.096;2023-04-24T11:51:22;1.42;;;0.82;;
2618;SDS011;1319;52.346;13.096;2023-04-24T11:53:48;0.77;;;0.77;;
2618;SDS011;1319;52.346;13.096;2023-04-24T11:56:16;0.73;;;0.73;;
2618;SDS011;1319;52.346;13.096;2023-04-24T11:58:42;0.88;;;0.88;;
2618;SDS011;1319;52.346;13.096;2023-04-24T12:01:07;1.10;;;0.90;;
2618;SDS011;1319;52.346;13.096;2023-04-24T12:03:32;1.08;;;0.88;;
2618;SDS011;1319;52.346;13.096;2023-04-24T12:06:04;2.20;;;0.80;;
2618;SDS011;1319;52.346;13.096;2023-04-24T12:08:31;1.00;;;0.90;;
2618;SDS011;1319;52.346;13.096;2023-04-24T12:10:57;1.33;;;0.82;;
2618;SDS011;1319;52.346;13.096;2023-04-24T12:13:25;1.08;;;0.70;;
2618;SDS011;1319;52.346;13.096;2023-04-24T12:15:50;3.55;;;1.10;;
2618;SDS011;1319;52.346;13.096;2023-04-24T12:18:15;1.25;;;1.13;;
2618;SDS011;1319;52.346;13.096;2023-04-24T12:20:42;1.30;;;1.20;;
2618;SDS011;1319;52.346;13.096;2023-04-24T12:23:07;0.90;;;0.90;;
2618;SDS011;1319;52.346;13.096;2023-04-24T12:25:32;1.63;;;0.75;;
2618;SDS011;1319;52.346;13.096;2023-04-24T12:30:29;0.90;;;0.90;;
2618;SDS011;1319;52.346;13.096;2023-04-24T12:32:56;6.65;;;0.82;;
2618;SDS011;1319;52.346;13.096;2023-04-24T12:35:22;2.70;;;1.00;;
2618;SDS011;1319;52.346;13.096;2023-04-24T12:37:48;0.90;;;0.70;;
2618;SDS011;1319;52.346;13.096;2023-04-24T12:40:13;1.13;;;0.90;;
2618;SDS011;1319;52.346;13.096;2023-04-24T12:42:46;1.55;;;0.70;;
2618;SDS011;1319;52.346;13.096;2023-04-24T12:45:11;0.85;;;0.85;;
2618;SDS011;1319;52.346;13.096;2023-04-24T12:47:40;0.80;;;0.80;;
2618;SDS011;1319;52.346;13.096;2023-04-24T12:50:06;0.80;;;0.80;;
2618;SDS011;1319;52.346;13.096;2023-04-24T12:52:32;0.90;;;0.88;;
2618;SDS011;1319;52.346;13.096;2023-04-24T12:54:58;2.53;;;1.00;;
2618;SDS011;1319;52.346;13.096;2023-04-24T12:57:23;1.00;;;0.95;;
2618;SDS011;1319;52.346;13.096;2023-04-24T12:59:49;1.40;;;1.10;;
2618;SDS011;1319;52.346;13.096;2023-04-24T13:02:14;0.90;;;0.90;;
2618;SDS011;1319;52.346;13.096;2023-04-24T13:04:43;3.70;;;1.02;;
2618;SDS011;1319;52.346;13.096;2023-04-24T13:07:08;2.08;;;1.00;;
2618;SDS011;1319;52.346;13.096;2023-04-24T13:09:34;0.70;;;0.70;;
2618;SDS011;1319;52.346;13.096;2023-04-24T13:11:59;1.15;;;0.85;;
2618;SDS011;1319;52.346;13.096;2023-04-24T13:14:25;1.02;;;0.90;;
2618;SDS011;1319;52.346;13.096;2023-04-24T13:16:51;3.33;;;0.85;;
2618;SDS011;1319;52.346;13.096;2023-04-24T13:19:16;1.00;;;1.00;;
2618;SDS011;1319;52.346;13.096;2023-04-24T13:21:41;1.17;;;0.80;;
2618;SDS011;1319;52.346;13.096;2023-04-24T13:24:07;1.00;;;0.90;;
2618;SDS011;1319;52.346;13.096;2023-04-24T13:26:32;0.90;;;0.90;;
2618;SDS011;1319;52.346;13.096;2023-04-24T13:28:58;2.17;;;1.10;;
2618;SDS011;1319;52.346;13.096;2023-04-24T13:31:23;1.20;;;1.10;;
2618;SDS011;1319;52.346;13.096;2023-04-24T13:33:48;1.75;;;0.93;;
2618;SDS011;1319;52.346;13.096;2023-04-24T13:36:13;1.58;;;0.85;;
2618;SDS011;1319;52.346;13.096;2023-04-24T13:38:39;1.10;;;1.10;;
2618;SDS011;1319;52.346;13.096;2023-04-24T13:41:04;1.85;;;0.80;;
2618;SDS011;1319;52.346;13.096;2023-04-24T13:43:29;0.95;;;0.95;;
2618;SDS011;1319;52.346;13.096;2023-04-24T13:45:54;1.70;;;1.02;;
2618;SDS011;1319;52.346;13.096;2023-04-24T13:48:20;1.75;;;0.90;;
2618;SDS011;1319;52.346;13.096;2023-04-24T13:50:45;16.45;;;1.40;;
2618;SDS011;1319;52.346;13.096;2023-04-24T13:53:13;1.00;;;0.90;;
2618;SDS011;1319;52.346;13.096;2023-04-24T13:55:38;1.10;;;1.10;;
2618;SDS011;1319;52.346;13.096;2023-04-24T13:58:04;1.80;;;0.82;;
2618;SDS011;1319;52.346;13.096;2023-04-24T14:00:29;0.82;;;0.82;;
2618;SDS011;1319;52.346;13.096;2023-04-24T14:02:55;1.10;;;1.10;;
2618;SDS011;1319;52.346;13.096;2023-04-24T14:05:21;2.22;;;1.05;;
2618;SDS011;1319;52.346;13.096;2023-04-24T14:07:47;1.25;;;1.10;;
2618;SDS011;1319;52.346;13.096;2023-04-24T14:10:12;1.27;;;1.27;;
2618;SDS011;1319;52.346;13.096;2023-04-24T14:12:37;1.13;;;1.13;;
2618;SDS011;1319;52.346;13.096;2023-04-24T14:15:03;1.20;;;1.10;;
2618;SDS011;1319;52.346;13.096;2023-04-24T14:17:29;1.98;;;1.15;;
2618;SDS011;1319;52.346;13.096;2023-04-24T14:19:55;1.00;;;1.00;;
2618;SDS011;1319;52.346;13.096;2023-04-24T14:22:21;1.00;;;1.00;;
2618;SDS011;1319;52.346;13.096;2023-04-24T14:24:46;1.00;;;1.00;;
2618;SDS011;1319;52.346;13.096;2023-04-24T14:27:12;1.27;;;1.27;;
2618;SDS011;1319;52.346;13.096;2023-04-24T14:29:37;1.30;;;1.20;;
2618;SDS011;1319;52.346;13.096;2023-04-24T14:32:02;1.27;;;1.20;;
2618;SDS011;1319;52.346;13.096;2023-04-24T14:34:27;1.98;;;1.10;;
2618;SDS011;1319;52.346;13.096;2023-04-24T14:36:52;1.92;;;1.23;;
2618;SDS011;1319;52.346;13.096;2023-04-24T14:39:18;2.40;;;1.20;;
2618;SDS011;1319;52.346;13.096;2023-04-24T14:41:43;1.40;;;1.30;;
2618;SDS011;1319;52.346;13.096;2023-04-24T14:44:08;1.40;;;1.30;;
2618;SDS011;1319;52.346;13.096;2023-04-24T14:46:34;2.47;;;1.30;;
2618;SDS011;1319;52.346;13.096;2023-04-24T14:48:59;2.67;;;1.40;;
2618;SDS011;1319;52.346;13.096;2023-04-24T14:51:25;1.13;;;1.13;;
2618;SDS011;1319;52.346;13.096;2023-04-24T14:53:50;1.93;;;1.20;;
2618;SDS011;1319;52.346;13.096;2023-04-24T14:56:15;1.60;;;1.20;;
2618;SDS011;1319;52.346;13.096;2023-04-24T14:58:41;3.13;;;1.30;;
2618;SDS011;1319;52.346;13.096;2023-04-24T15:01:06;1.40;;;1.30;;
2618;SDS011;1319;52.346;13.096;2023-04-24T15:03:31;4.53;;;1.13;;
2618;SDS011;1319;52.346;13.096;2023-04-24T15:05:57;2.00;;;1.20;;